createdAt,value
2023-05-08T00:01:32.194Z,7.93
2023-05-08T00:03:59.642Z,9.90
2023-05-08T00:06:29.861Z,9.25
2023-05-08T00:08:57.204Z,9.70
2023-05-08T00:11:24.561Z,9.48
2023-05-08T00:13:52.000Z,10.52
2023-05-08T00:16:19.214Z,12.30
2023-05-08T00:18:47.115Z,8.75
2023-05-08T00:21:14.365Z,10.10
2023-05-08T00:23:41.819Z,9.95
2023-05-08T00:26:08.838Z,11.15
2023-05-08T00:28:36.228Z,11.82
2023-05-08T00:31:03.485Z,7.60
2023-05-08T00:33:30.812Z,9.43
2023-05-08T00:36:05.781Z,10.30
2023-05-08T00:38:36.593Z,10.48
2023-05-08T00:41:04.358Z,9.93
2023-05-08T00:43:32.136Z,9.35
2023-05-08T00:46:01.496Z,10.00
2023-05-08T00:48:34.110Z,6.05
2023-05-08T00:51:06.408Z,8.25
2023-05-08T00:53:39.364Z,7.93
2023-05-08T00:56:10.994Z,6.72
2023-05-08T00:58:40.732Z,8.05
2023-05-08T01:01:08.199Z,8.05
2023-05-08T01:03:37.618Z,7.35
2023-05-08T01:06:06.735Z,8.13
2023-05-08T01:08:34.934Z,8.75
2023-05-08T01:11:58.317Z,8.43
2023-05-08T01:15:05.542Z,9.45
2023-05-08T01:18:19.690Z,5.40
2023-05-08T01:21:14.455Z,7.53
2023-05-08T01:23:57.449Z,7.07
2023-05-08T01:26:46.397Z,5.90
2023-05-08T01:29:54.948Z,8.10
2023-05-08T01:32:28.647Z,7.53
2023-05-08T01:35:10.917Z,8.80
2023-05-08T01:38:02.863Z,6.38
2023-05-08T01:41:07.892Z,7.35
2023-05-08T01:43:47.313Z,7.28
2023-05-08T01:46:21.848Z,7.15
2023-05-08T01:49:12.603Z,6.60
2023-05-08T01:51:46.013Z,7.18
2023-05-08T01:54:21.164Z,5.72
2023-05-08T01:56:52.864Z,8.25
2023-05-08T01:59:24.544Z,6.70
2023-05-08T02:01:57.170Z,6.15
2023-05-08T02:04:28.334Z,7.22
2023-05-08T02:06:57.934Z,7.03
2023-05-08T02:09:29.480Z,7.03
2023-05-08T02:11:58.434Z,6.68
2023-05-08T02:14:28.752Z,7.18
2023-05-08T02:16:59.294Z,6.15
2023-05-08T02:19:29.811Z,9.30
2023-05-08T02:21:59.849Z,7.88
2023-05-08T02:24:27.718Z,6.50
2023-05-08T02:26:57.326Z,6.90
2023-05-08T02:29:25.867Z,8.70
2023-05-08T02:31:56.059Z,8.13
2023-05-08T02:34:25.587Z,9.32
2023-05-08T02:36:54.636Z,8.02
2023-05-08T02:39:29.761Z,5.65
2023-05-08T02:41:58.026Z,6.93
2023-05-08T02:44:25.746Z,7.53
2023-05-08T02:46:58.363Z,6.05
2023-05-08T02:49:43.517Z,7.57
2023-05-08T02:52:49.190Z,7.95
2023-05-08T02:55:38.162Z,7.10
2023-05-08T02:58:30.064Z,11.13
2023-05-08T03:01:06.574Z,7.13
2023-05-08T03:03:44.669Z,6.95
2023-05-08T03:06:24.392Z,8.38
2023-05-08T03:08:57.293Z,9.18
2023-05-08T03:11:33.487Z,7.18
2023-05-08T03:14:03.370Z,8.77
2023-05-08T03:16:37.337Z,7.25
2023-05-08T03:19:15.112Z,8.30
2023-05-08T03:21:44.334Z,11.93
2023-05-08T03:24:15.632Z,9.95
2023-05-08T03:26:44.416Z,7.83
2023-05-08T03:29:14.581Z,9.65
2023-05-08T03:31:44.969Z,6.75
2023-05-08T03:34:14.745Z,8.50
2023-05-08T03:36:42.793Z,8.27
2023-05-08T03:39:10.145Z,7.82
2023-05-08T03:41:37.840Z,8.48
2023-05-08T03:44:07.025Z,8.43
2023-05-08T03:46:37.980Z,7.30
2023-05-08T03:49:08.815Z,9.77
2023-05-08T03:51:40.837Z,8.80
2023-05-08T03:54:08.251Z,8.83
2023-05-08T03:56:35.966Z,10.68
2023-05-08T03:59:28.133Z,9.38
2023-05-08T04:02:12.000Z,8.93
2023-05-08T04:04:45.795Z,9.55
2023-05-08T04:07:35.305Z,8.10
2023-05-08T04:10:09.245Z,8.93
2023-05-08T04:13:10.962Z,12.70
2023-05-08T04:15:54.872Z,10.60
2023-05-08T04:18:30.603Z,9.32
2023-05-08T04:21:03.231Z,12.55
2023-05-08T04:23:33.804Z,9.88
2023-05-08T04:26:05.604Z,8.80
2023-05-08T04:28:34.936Z,8.63
2023-05-08T04:31:04.967Z,10.35
2023-05-08T04:33:35.515Z,8.57
2023-05-08T04:36:03.641Z,11.70
2023-05-08T04:38:31.934Z,8.68
2023-05-08T04:40:59.711Z,8.15
2023-05-08T04:43:27.527Z,8.63
2023-05-08T04:45:54.649Z,8.02
2023-05-08T04:48:22.450Z,9.82
2023-05-08T04:50:49.617Z,12.95
2023-05-08T04:53:17.019Z,10.38
2023-05-08T04:55:44.206Z,8.10
2023-05-08T04:58:11.767Z,8.90
2023-05-08T05:00:39.140Z,9.30
2023-05-08T05:03:06.660Z,9.40
2023-05-08T05:05:37.666Z,9.23
2023-05-08T05:08:07.047Z,7.63
2023-05-08T05:10:34.249Z,7.78
2023-05-08T05:13:01.720Z,7.47
2023-05-08T05:15:29.046Z,10.32
2023-05-08T05:17:56.868Z,11.50
2023-05-08T05:20:23.933Z,10.55
2023-05-08T05:22:51.397Z,7.13
2023-05-08T05:25:18.734Z,7.78
2023-05-08T05:27:46.558Z,8.82
2023-05-08T05:30:14.304Z,12.77
2023-05-08T05:32:42.291Z,10.75
2023-05-08T05:35:10.570Z,7.90
2023-05-08T05:37:38.632Z,10.25
2023-05-08T05:40:06.998Z,12.18
2023-05-08T05:42:35.984Z,9.80
2023-05-08T05:45:03.625Z,9.48
2023-05-08T05:47:32.411Z,8.68
2023-05-08T05:49:59.997Z,7.55
2023-05-08T05:52:27.483Z,8.25
2023-05-08T05:54:54.571Z,7.90
2023-05-08T05:57:21.989Z,7.05
2023-05-08T05:59:49.760Z,10.85
2023-05-08T06:02:18.922Z,7.07
2023-05-08T06:04:46.841Z,8.63
2023-05-08T06:07:14.868Z,7.30
2023-05-08T06:09:41.972Z,7.05
2023-05-08T06:12:12.029Z,6.85
2023-05-08T06:14:39.440Z,9.52
2023-05-08T06:17:07.134Z,10.57
2023-05-08T06:19:39.041Z,8.52
2023-05-08T06:22:06.432Z,7.72
2023-05-08T06:24:34.271Z,7.55
2023-05-08T06:27:02.019Z,12.43
2023-05-08T06:29:29.148Z,11.88
2023-05-08T06:31:56.880Z,8.38
2023-05-08T06:34:23.992Z,8.25
2023-05-08T06:36:51.484Z,11.18
2023-05-08T06:39:18.623Z,7.22
2023-05-08T06:41:49.259Z,7.53
2023-05-08T06:44:24.803Z,7.95
2023-05-08T06:46:52.313Z,9.02
2023-05-08T06:49:19.826Z,7.90
2023-05-08T06:51:47.287Z,7.65
2023-05-08T06:54:14.419Z,6.88
2023-05-08T06:56:41.890Z,8.38
2023-05-08T06:59:09.490Z,8.70
2023-05-08T07:01:37.542Z,6.30
2023-05-08T07:04:05.727Z,10.82
2023-05-08T07:06:33.924Z,6.43
2023-05-08T07:09:01.001Z,7.80
2023-05-08T07:11:28.463Z,8.65
2023-05-08T07:13:55.889Z,7.32
2023-05-08T07:16:23.248Z,5.68
2023-05-08T07:18:50.432Z,8.10
2023-05-08T07:21:18.795Z,8.45
2023-05-08T07:23:46.008Z,8.57
2023-05-08T07:26:13.786Z,6.82
2023-05-08T07:28:40.961Z,6.82
2023-05-08T07:31:08.486Z,6.50
2023-05-08T07:33:35.685Z,6.00
2023-05-08T07:36:03.303Z,5.25
2023-05-08T07:38:30.681Z,9.15
2023-05-08T07:40:59.609Z,5.78
2023-05-08T07:43:26.938Z,10.05
2023-05-08T07:45:54.479Z,6.47
2023-05-08T07:48:21.736Z,6.38
2023-05-08T07:50:52.356Z,5.88
2023-05-08T07:53:19.598Z,6.63
2023-05-08T07:55:47.077Z,5.15
2023-05-08T07:58:14.481Z,6.20
2023-05-08T08:00:41.876Z,5.13
2023-05-08T08:03:09.055Z,7.13
2023-05-08T08:05:36.618Z,4.85
2023-05-08T08:08:04.360Z,5.68
2023-05-08T08:10:31.973Z,5.88
2023-05-08T08:13:01.851Z,6.07
2023-05-08T08:15:29.528Z,5.85
2023-05-08T08:17:57.160Z,5.15
2023-05-08T08:20:24.623Z,4.32
2023-05-08T08:22:51.874Z,8.27
2023-05-08T08:25:19.377Z,5.18
2023-05-08T08:27:46.648Z,4.85
2023-05-08T08:30:18.311Z,7.22
2023-05-08T08:32:46.740Z,6.28
2023-05-08T08:35:14.855Z,4.57
2023-05-08T08:37:43.105Z,5.30
2023-05-08T08:40:10.895Z,5.30
2023-05-08T08:42:38.030Z,5.22
2023-05-08T08:45:06.688Z,6.22
2023-05-08T08:47:37.899Z,5.75
2023-05-08T08:50:08.502Z,6.63
2023-05-08T08:52:47.016Z,4.68
2023-05-08T08:55:18.539Z,5.55
2023-05-08T08:58:25.467Z,6.10
2023-05-08T09:00:56.168Z,5.22
2023-05-08T09:03:23.610Z,5.32
2023-05-08T09:05:51.837Z,4.57
2023-05-08T09:08:19.414Z,6.63
2023-05-08T09:10:47.171Z,5.68
2023-05-08T09:13:16.211Z,5.55
2023-05-08T09:15:44.752Z,6.28
2023-05-08T09:18:11.953Z,7.03
2023-05-08T09:20:41.357Z,7.47
2023-05-08T09:23:09.025Z,7.07
2023-05-08T09:25:48.017Z,5.47
2023-05-08T09:28:24.316Z,6.97
2023-05-08T09:31:00.058Z,4.57
2023-05-08T09:33:29.389Z,5.47
2023-05-08T09:35:57.656Z,5.93
2023-05-08T09:38:41.811Z,7.55
2023-05-08T09:41:16.245Z,4.53
2023-05-08T09:43:45.204Z,4.50
2023-05-08T09:46:24.770Z,3.33
2023-05-08T09:48:59.070Z,5.25
2023-05-08T09:51:30.321Z,4.97
2023-05-08T09:53:59.721Z,6.22
2023-05-08T09:56:35.415Z,5.80
2023-05-08T09:59:06.275Z,8.32
2023-05-08T10:01:37.302Z,4.75
2023-05-08T10:04:06.166Z,4.13
2023-05-08T10:06:33.896Z,4.72
2023-05-08T10:09:15.193Z,4.50
2023-05-08T10:11:52.379Z,5.00
2023-05-08T10:14:20.884Z,5.45
2023-05-08T10:16:52.799Z,6.57
2023-05-08T10:19:25.429Z,6.18
2023-05-08T10:21:57.747Z,6.18
2023-05-08T10:24:33.695Z,7.28
2023-05-08T10:27:17.960Z,7.97
2023-05-08T10:29:56.832Z,5.50
2023-05-08T10:32:25.851Z,6.32
2023-05-08T10:34:58.596Z,5.13
2023-05-08T10:37:30.227Z,5.90
2023-05-08T10:39:58.728Z,7.28
2023-05-08T10:42:27.781Z,5.03
2023-05-08T10:44:55.662Z,8.80
2023-05-08T10:47:58.072Z,5.88
2023-05-08T10:50:59.467Z,5.73
2023-05-08T10:53:33.546Z,7.55
2023-05-08T10:56:01.248Z,5.95
2023-05-08T10:58:34.355Z,6.28
2023-05-08T11:01:06.756Z,6.22
2023-05-08T11:03:50.825Z,4.68
2023-05-08T11:06:49.306Z,8.18
2023-05-08T11:09:29.499Z,7.25
2023-05-08T11:12:15.554Z,7.55
2023-05-08T11:14:53.633Z,7.10
2023-05-08T11:17:25.959Z,11.77
2023-05-08T11:20:06.875Z,5.72
2023-05-08T11:22:36.876Z,6.80
2023-05-08T11:25:09.618Z,4.85
2023-05-08T11:30:38.896Z,10.65
2023-05-08T11:33:06.854Z,6.53
2023-05-08T11:36:22.211Z,5.38
2023-05-08T11:39:15.606Z,5.63
2023-05-08T11:41:42.997Z,5.75
2023-05-08T11:44:20.780Z,13.45
2023-05-08T11:46:56.183Z,6.05
2023-05-08T11:49:29.421Z,8.13
2023-05-08T11:52:00.005Z,6.93
2023-05-08T11:54:31.564Z,6.20
2023-05-08T11:56:59.793Z,10.32
2023-05-08T11:59:27.276Z,15.32
2023-05-08T12:04:24.783Z,8.25
2023-05-08T12:06:58.993Z,7.40
2023-05-08T12:09:26.879Z,13.52
2023-05-08T12:11:58.033Z,8.15
2023-05-08T12:14:25.196Z,7.28
2023-05-08T12:16:52.811Z,4.28
2023-05-08T12:19:20.321Z,22.10
2023-05-08T12:21:49.066Z,7.50
2023-05-08T12:24:22.814Z,18.88
2023-05-08T12:26:55.494Z,9.77
2023-05-08T12:29:22.916Z,5.88
2023-05-08T12:31:51.004Z,4.55
2023-05-08T12:34:18.433Z,7.40
2023-05-08T12:36:45.850Z,5.13
2023-05-08T12:39:16.329Z,4.55
2023-05-08T12:41:48.675Z,5.38
2023-05-08T12:44:26.555Z,4.78
2023-05-08T12:46:56.831Z,6.88
2023-05-08T12:49:29.929Z,4.47
2023-05-08T12:52:12.278Z,7.25
2023-05-08T12:54:47.003Z,5.03
2023-05-08T12:57:19.764Z,6.10
2023-05-08T12:59:47.271Z,6.35
2023-05-08T13:02:23.556Z,4.53
2023-05-08T13:04:58.054Z,6.53
2023-05-08T13:07:32.859Z,7.85
2023-05-08T13:10:04.443Z,4.85
2023-05-08T13:12:32.115Z,4.45
2023-05-08T13:14:59.250Z,4.32
2023-05-08T13:17:26.710Z,5.28
2023-05-08T13:19:53.948Z,5.35
2023-05-08T13:22:23.174Z,5.03
2023-05-08T13:24:50.255Z,4.05
2023-05-08T13:27:18.039Z,4.10
2023-05-08T13:29:45.208Z,4.00
2023-05-08T13:32:12.740Z,3.92
2023-05-08T13:34:49.245Z,6.38
2023-05-08T13:37:18.483Z,4.25
2023-05-08T13:39:45.873Z,4.13
2023-05-08T13:42:13.243Z,3.88
2023-05-08T13:44:40.668Z,4.07
2023-05-08T13:47:10.111Z,4.20
2023-05-08T13:49:37.257Z,4.75
2023-05-08T13:52:05.747Z,4.68
2023-05-08T13:54:32.868Z,5.00
2023-05-08T13:57:01.077Z,7.32
2023-05-08T13:59:28.618Z,5.53
2023-05-08T14:01:57.232Z,7.25
2023-05-08T14:04:24.461Z,9.60
2023-05-08T14:06:51.935Z,10.18
2023-05-08T14:09:19.091Z,22.17
2023-05-08T14:11:46.538Z,9.60
2023-05-08T14:14:13.618Z,14.00
2023-05-08T14:16:41.216Z,8.35
2023-05-08T14:19:08.352Z,9.45
2023-05-08T14:21:36.738Z,9.63
2023-05-08T14:24:04.433Z,7.28
2023-05-08T14:26:31.901Z,8.70
2023-05-08T14:28:59.038Z,12.43
2023-05-08T14:31:26.494Z,10.23
2023-05-08T14:33:53.584Z,13.90
2023-05-08T14:36:21.192Z,12.38
2023-05-08T14:38:48.344Z,5.07
2023-05-08T14:41:15.785Z,4.90
2023-05-08T14:43:43.804Z,7.25
2023-05-08T14:46:11.273Z,5.45
2023-05-08T14:48:38.374Z,8.00
2023-05-08T14:51:05.907Z,7.53
2023-05-08T14:53:33.310Z,6.55
2023-05-08T14:56:01.253Z,5.28
2023-05-08T14:58:28.645Z,6.47
2023-05-08T15:00:56.160Z,6.70
2023-05-08T15:03:23.392Z,8.18
2023-05-08T15:05:50.848Z,8.65
2023-05-08T15:08:18.227Z,9.90
2023-05-08T15:10:45.850Z,9.82
2023-05-08T15:13:13.022Z,4.93
2023-05-08T15:15:40.574Z,4.38
2023-05-08T15:18:07.862Z,4.13
2023-05-08T15:20:35.457Z,7.07
2023-05-08T15:23:02.641Z,5.18
2023-05-08T15:25:30.348Z,4.70
2023-05-08T15:27:58.288Z,4.63
2023-05-08T15:30:25.715Z,9.18
2023-05-08T15:32:52.944Z,6.05
2023-05-08T15:35:20.385Z,9.35
2023-05-08T15:37:47.851Z,6.25
2023-05-08T15:40:15.730Z,5.43
2023-05-08T15:42:42.931Z,5.47
2023-05-08T15:45:10.567Z,7.93
2023-05-08T15:47:37.904Z,4.97
2023-05-08T15:50:06.200Z,6.45
2023-05-08T15:52:33.435Z,4.78
2023-05-08T15:55:00.936Z,4.22
2023-05-08T15:57:28.021Z,6.68
2023-05-08T15:59:55.654Z,5.05
2023-05-08T16:02:22.879Z,5.13
2023-05-08T16:04:50.317Z,5.28
2023-05-08T16:07:17.718Z,6.10
2023-05-08T16:09:45.091Z,4.68
2023-05-08T16:12:12.213Z,3.72
2023-05-08T16:14:39.704Z,6.05
2023-05-08T16:17:07.779Z,4.65
2023-05-08T16:19:39.464Z,6.88
2023-05-08T16:22:06.899Z,4.82
2023-05-08T16:24:34.435Z,6.07
2023-05-08T16:27:02.337Z,4.90
2023-05-08T16:29:29.769Z,5.18
2023-05-08T16:31:57.068Z,9.32
2023-05-08T16:34:24.581Z,6.65
2023-05-08T16:36:51.693Z,7.00
2023-05-08T16:39:19.084Z,5.65
2023-05-08T16:41:46.482Z,5.32
2023-05-08T16:44:15.005Z,5.97
2023-05-08T16:46:42.307Z,6.10
2023-05-08T16:49:09.805Z,4.82
2023-05-08T16:51:36.994Z,6.88
2023-05-08T16:54:04.442Z,8.05
2023-05-08T16:56:31.654Z,8.00
2023-05-08T16:59:01.258Z,11.88
2023-05-08T17:01:28.617Z,11.38
2023-05-08T17:03:56.067Z,6.20
2023-05-08T17:06:23.151Z,8.73
2023-05-08T17:08:50.617Z,5.88
2023-05-08T17:11:17.976Z,7.05
2023-05-08T17:13:46.146Z,5.30
2023-05-08T17:16:13.395Z,5.30
2023-05-08T17:18:40.840Z,6.55
2023-05-08T17:21:08.099Z,5.07
2023-05-08T17:23:35.420Z,5.88
2023-05-08T17:26:02.585Z,6.88
2023-05-08T17:28:29.984Z,6.45
2023-05-08T17:30:57.234Z,4.68
2023-05-08T17:33:25.038Z,6.90
2023-05-08T17:35:52.176Z,5.55
2023-05-08T17:38:19.609Z,5.53
2023-05-08T17:40:47.238Z,6.65
2023-05-08T17:43:14.674Z,7.15
2023-05-08T17:45:41.938Z,8.35
2023-05-08T17:48:09.399Z,5.95
2023-05-08T17:50:36.775Z,7.95
2023-05-08T17:53:04.087Z,9.18
2023-05-08T17:55:31.715Z,7.75
2023-05-08T17:57:59.193Z,11.40
2023-05-08T18:00:27.036Z,4.97
2023-05-08T18:02:54.487Z,9.80
2023-05-08T18:05:21.816Z,6.88
2023-05-08T18:07:49.264Z,8.23
2023-05-08T18:10:16.640Z,6.63
2023-05-08T18:12:44.094Z,5.40
2023-05-08T18:15:11.676Z,5.38
2023-05-08T18:17:39.177Z,5.18
2023-05-08T18:20:07.973Z,7.15
2023-05-08T18:22:35.591Z,7.25
2023-05-08T18:25:03.704Z,4.40
2023-05-08T18:27:34.197Z,5.57
2023-05-08T18:30:01.478Z,5.65
2023-05-08T18:32:29.206Z,5.03
2023-05-08T18:34:57.185Z,5.93
2023-05-08T18:37:24.689Z,7.22
2023-05-08T18:39:52.109Z,5.80
2023-05-08T18:42:19.540Z,6.93
2023-05-08T18:44:46.680Z,5.50
2023-05-08T18:47:14.031Z,6.95
2023-05-08T18:49:41.395Z,6.53
2023-05-08T18:52:08.839Z,9.07
2023-05-08T18:54:36.008Z,6.28
2023-05-08T18:57:04.453Z,8.32
2023-05-08T18:59:31.730Z,8.43
2023-05-08T19:01:59.124Z,9.10
2023-05-08T19:04:26.333Z,11.18
2023-05-08T19:06:54.105Z,9.80
2023-05-08T19:09:21.302Z,14.52
2023-05-08T19:11:48.712Z,16.30
2023-05-08T19:14:16.189Z,17.52
2023-05-08T19:16:43.677Z,20.25
2023-05-08T19:19:10.922Z,23.88
2023-05-08T19:21:38.282Z,25.25
2023-05-08T19:24:06.100Z,23.50
2023-05-08T19:26:33.492Z,22.85
2023-05-08T19:29:00.727Z,26.02
2023-05-08T19:31:28.720Z,25.52
2023-05-08T19:33:57.285Z,25.95
2023-05-08T19:36:24.788Z,37.88
2023-05-08T19:38:51.958Z,46.03
2023-05-08T19:41:19.362Z,38.33
2023-05-08T19:43:46.697Z,33.28
2023-05-08T19:46:14.088Z,28.40
2023-05-08T19:48:41.582Z,33.13
2023-05-08T19:51:10.010Z,25.60
2023-05-08T19:53:37.196Z,26.48
2023-05-08T19:56:04.680Z,22.65
2023-05-08T19:58:31.863Z,24.42
2023-05-08T20:00:59.693Z,20.38
2023-05-08T20:03:27.113Z,21.75
2023-05-08T20:05:54.639Z,17.73
2023-05-08T20:08:22.002Z,25.60
2023-05-08T20:10:49.477Z,19.83
2023-05-08T20:13:17.791Z,17.50
2023-05-08T20:15:45.495Z,17.45
2023-05-08T20:18:12.769Z,19.35
2023-05-08T20:20:40.121Z,18.63
2023-05-08T20:23:07.443Z,16.88
2023-05-08T20:25:34.923Z,16.65
2023-05-08T20:28:02.074Z,17.75
2023-05-08T20:30:29.646Z,17.00
2023-05-08T20:33:02.300Z,17.35
2023-05-08T20:35:33.251Z,15.80
2023-05-08T20:38:00.497Z,16.33
2023-05-08T20:40:28.010Z,16.50
2023-05-08T20:42:55.280Z,14.95
2023-05-08T20:45:22.715Z,17.92
2023-05-08T20:47:50.030Z,14.05
2023-05-08T20:50:17.685Z,15.95
2023-05-08T20:52:44.827Z,14.40
2023-05-08T20:55:12.517Z,16.77
2023-05-08T20:57:39.937Z,17.52
2023-05-08T21:00:08.430Z,14.93
2023-05-08T21:02:38.551Z,17.73
2023-05-08T21:05:07.557Z,19.35
2023-05-08T21:07:35.072Z,16.92
2023-05-08T21:10:03.808Z,15.80
2023-05-08T21:12:30.859Z,20.67
2023-05-08T21:14:58.347Z,19.33
2023-05-08T21:17:25.555Z,21.38
2023-05-08T21:19:52.996Z,17.67
2023-05-08T21:22:20.105Z,21.52
2023-05-08T21:24:47.456Z,21.10
2023-05-08T21:27:14.624Z,19.65
2023-05-08T21:29:41.913Z,21.30
2023-05-08T21:32:10.276Z,17.48
2023-05-08T21:34:37.988Z,18.60
2023-05-08T21:37:05.194Z,16.27
2023-05-08T21:39:32.748Z,18.92
2023-05-08T21:41:59.893Z,17.83
2023-05-08T21:44:27.219Z,14.27
2023-05-08T21:46:54.308Z,17.42
2023-05-08T21:49:21.725Z,14.93
2023-05-08T21:51:48.774Z,17.60
2023-05-08T21:54:16.076Z,17.35
2023-05-08T21:56:43.220Z,16.42
2023-05-08T21:59:10.535Z,19.23
2023-05-08T22:01:37.670Z,19.77
2023-05-08T22:04:05.196Z,17.70
2023-05-08T22:06:32.999Z,18.77
2023-05-08T22:09:00.532Z,15.30
2023-05-08T22:11:28.520Z,16.75
2023-05-08T22:13:55.885Z,19.73
2023-05-08T22:16:23.039Z,17.98
2023-05-08T22:18:50.386Z,15.05
2023-05-08T22:21:17.526Z,19.88
2023-05-08T22:23:44.965Z,13.30
2023-05-08T22:26:12.092Z,14.43
2023-05-08T22:28:39.623Z,13.73
2023-05-08T22:31:07.468Z,10.02
2023-05-08T22:33:34.971Z,12.57
2023-05-08T22:36:02.883Z,10.80
2023-05-08T22:38:30.381Z,9.95
2023-05-08T22:41:00.123Z,9.85
2023-05-08T22:43:27.989Z,9.02
2023-05-08T22:45:56.693Z,10.15
2023-05-08T22:48:24.253Z,10.57
2023-05-08T22:50:51.653Z,9.82
2023-05-08T22:53:19.090Z,14.23
2023-05-08T22:55:46.292Z,10.82
2023-05-08T22:58:13.578Z,12.55
2023-05-08T23:00:40.720Z,9.45
2023-05-08T23:03:08.144Z,9.70
2023-05-08T23:05:35.381Z,8.30
2023-05-08T23:08:02.862Z,10.30
2023-05-08T23:10:30.110Z,8.23
2023-05-08T23:12:57.501Z,9.02
2023-05-08T23:15:24.710Z,9.55
2023-05-08T23:17:52.222Z,8.85
2023-05-08T23:20:19.374Z,9.93
2023-05-08T23:22:46.726Z,9.48
2023-05-08T23:25:14.203Z,11.75
2023-05-08T23:27:41.655Z,10.50
2023-05-08T23:30:09.227Z,10.27
2023-05-08T23:32:36.687Z,10.38
2023-05-08T23:35:04.332Z,10.77
2023-05-08T23:37:31.828Z,12.07
2023-05-08T23:39:58.941Z,11.60
2023-05-08T23:42:26.385Z,10.88
2023-05-08T23:44:53.605Z,11.00
2023-05-08T23:47:22.454Z,13.55
2023-05-08T23:49:49.808Z,13.00
2023-05-08T23:52:17.438Z,10.55
2023-05-08T23:54:44.491Z,10.18
2023-05-08T23:57:12.931Z,13.48
2023-05-08T23:59:40.041Z,10.20
